Time;durP1;ratioP1;P1;durP2;ratioP2;P2;SDS_P1;SDS_P2;PMS_P1;PMS_P2;Temp;Humidity;BMP_temperature;BMP_pressure;BME280_temperature;BME280_humidity;BME280_pressure;Samples;Min_cycle;Max_cycle;Signal;HPM_P1;HPM_P2
2023/05/01 00:00:34;;;;;;;5.03;3.78;;;8.60;99.90;;;;;;4980422;28;20038;-86
2023/05/01 00:03:00;;;;;;;6.70;4.00;;;11.00;99.90;;;;;;4994666;28;20057;-87
2023/05/01 00:05:27;;;;;;;7.90;4.00;;;8.80;99.90;;;;;;4994168;28;20048;-87
2023/05/01 00:07:53;;;;;;;8.07;3.58;;;8.70;99.90;;;;;;4994307;28;20140;-85
2023/05/01 00:10:20;;;;;;;5.28;3.70;;;9.10;99.90;;;;;;4978116;28;20038;-87
2023/05/01 00:12:45;;;;;;;4.78;3.88;;;10.90;99.90;;;;;;4977887;28;20054;-86
2023/05/01 00:15:13;;;;;;;4.32;3.83;;;9.80;99.90;;;;;;4993872;28;20041;-86
2023/05/01 00:17:39;;;;;;;4.47;3.28;;;10.30;99.90;;;;;;4961925;28;20057;-87
2023/05/01 00:20:08;;;;;;;6.68;3.70;;;10.50;99.90;;;;;;4994578;28;20046;-85
2023/05/01 00:22:34;;;;;;;6.90;3.40;;;8.70;99.90;;;;;;5011735;28;20057;-88
2023/05/01 00:25:00;;;;;;;6.72;3.63;;;8.50;99.90;;;;;;4977736;28;20050;-87
2023/05/01 00:27:26;;;;;;;5.38;3.33;;;10.20;99.90;;;;;;4993874;28;20086;-86
2023/05/01 00:30:02;;;;;;;6.75;3.63;;;8.60;99.90;;;;;;4998755;28;20444;-85
2023/05/01 00:32:29;;;;;;;9.70;3.90;;;10.10;99.90;;;;;;4996906;28;20072;-87
2023/05/01 00:34:57;;;;;;;8.13;3.70;;;8.60;99.90;;;;;;5023069;28;20085;-86
2023/05/01 00:37:26;;;;;;;13.38;3.95;;;10.60;99.90;;;;;;4986675;28;20045;-86
2023/05/01 00:39:51;;;;;;;8.00;3.80;;;8.60;99.90;;;;;;4983890;28;20189;-88
2023/05/01 00:42:17;;;;;;;7.10;3.90;;;8.50;99.90;;;;;;4994214;28;20049;-88
2023/05/01 00:44:46;;;;;;;5.78;3.90;;;8.50;99.90;;;;;;5011555;28;20112;-85
2023/05/01 00:47:13;;;;;;;6.45;3.42;;;8.60;99.90;;;;;;4993133;28;20054;-85
2023/05/01 00:49:43;;;;;;;8.75;3.90;;;8.30;99.90;;;;;;4994187;28;20049;-86
2023/05/01 00:52:09;;;;;;;8.07;3.40;;;8.60;99.90;;;;;;4977650;28;20057;-86
2023/05/01 00:54:37;;;;;;;4.55;3.20;;;10.80;99.90;;;;;;4977403;28;20050;-84
2023/05/01 00:57:03;;;;;;;5.22;3.88;;;10.90;99.90;;;;;;4961029;28;20519;-85
2023/05/01 00:59:31;;;;;;;7.45;3.65;;;8.30;99.90;;;;;;5009668;28;20038;-86
2023/05/01 01:01:57;;;;;;;5.50;3.88;;;8.90;99.90;;;;;;5009673;28;20057;-86
2023/05/01 01:04:26;;;;;;;6.85;4.07;;;10.50;99.90;;;;;;4961241;28;20042;-86
2023/05/01 01:07:20;;;;;;;5.85;3.40;;;8.40;99.90;;;;;;4993846;28;20076;-86
2023/05/01 01:10:12;;;;;;;8.23;3.42;;;8.40;99.90;;;;;;4990852;28;20093;-86
2023/05/01 01:13:01;;;;;;;9.05;3.92;;;8.40;99.90;;;;;;4988085;28;20551;-87
2023/05/01 01:15:39;;;;;;;8.80;3.33;;;9.10;99.90;;;;;;4976413;28;20062;-87
2023/05/01 01:18:49;;;;;;;7.82;4.35;;;8.30;99.90;;;;;;5002778;28;20061;-86
2023/05/01 01:21:30;;;;;;;7.35;3.90;;;8.40;99.90;;;;;;4977022;28;20057;-86
2023/05/01 01:24:17;;;;;;;6.85;3.97;;;8.30;99.90;;;;;;5009408;28;20045;-86
2023/05/01 01:27:02;;;;;;;7.10;4.22;;;8.20;99.90;;;;;;5010513;28;20057;-86
2023/05/01 01:30:01;;;;;;;6.75;3.65;;;8.20;99.90;;;;;;4969255;28;20046;-86
2023/05/01 01:32:49;;;;;;;8.82;4.07;;;9.70;99.90;;;;;;4986684;28;20065;-86
2023/05/01 01:35:23;;;;;;;5.38;4.07;;;8.10;99.90;;;;;;4992808;28;20057;-86
2023/05/01 01:38:07;;;;;;;6.43;3.42;;;9.40;99.90;;;;;;5010473;28;20064;-87
2023/05/01 01:40:38;;;;;;;9.27;3.97;;;8.10;99.90;;;;;;4986439;28;20132;-86
2023/05/01 01:43:10;;;;;;;7.45;3.88;;;8.10;99.90;;;;;;4993581;28;20386;-87
2023/05/01 01:45:42;;;;;;;5.25;3.70;;;8.10;99.90;;;;;;4993021;28;20569;-86
2023/05/01 01:48:15;;;;;;;7.88;4.22;;;10.30;99.90;;;;;;4976305;28;20096;-86
2023/05/01 01:50:45;;;;;;;6.35;4.07;;;8.10;99.90;;;;;;4976501;28;20532;-85
2023/05/01 01:53:16;;;;;;;7.93;4.15;;;8.00;99.90;;;;;;4992928;28;20054;-87
2023/05/01 01:55:44;;;;;;;8.75;3.58;;;7.50;99.90;;;;;;4976569;28;20045;-87
2023/05/01 01:58:10;;;;;;;8.02;3.95;;;7.80;99.90;;;;;;4991988;28;20078;-87
2023/05/01 02:00:37;;;;;;;8.57;4.53;;;10.00;99.90;;;;;;4992158;28;20073;-85
2023/05/01 02:03:09;;;;;;;5.75;4.47;;;8.00;99.90;;;;;;4992156;28;20049;-86
2023/05/01 02:05:36;;;;;;;9.80;4.80;;;9.80;99.90;;;;;;4999138;28;20057;-85
2023/05/01 02:08:04;;;;;;;7.07;3.80;;;8.00;99.90;;;;;;5025540;28;20065;-86
2023/05/01 02:10:33;;;;;;;7.70;4.45;;;7.90;99.90;;;;;;5002375;28;20042;-86
2023/05/01 02:13:02;;;;;;;8.75;3.97;;;10.30;99.90;;;;;;5013587;28;20133;-85
2023/05/01 02:15:29;;;;;;;7.00;3.63;;;8.70;99.90;;;;;;4996338;28;20049;-86
2023/05/01 02:17:56;;;;;;;12.73;4.43;;;9.40;99.90;;;;;;4996560;28;20054;-84
2023/05/01 02:20:22;;;;;;;6.60;3.83;;;7.90;99.90;;;;;;4980586;28;20042;-86
2023/05/01 02:22:52;;;;;;;6.55;4.00;;;8.80;99.90;;;;;;5003375;28;20438;-85
2023/05/01 02:25:19;;;;;;;7.03;4.38;;;8.00;99.90;;;;;;4999388;28;20120;-86
2023/05/01 02:27:55;;;;;;;9.82;3.58;;;8.00;99.90;;;;;;4995553;28;20057;-86
2023/05/01 02:30:21;;;;;;;6.88;4.28;;;7.90;99.90;;;;;;4996367;28;20042;-85
2023/05/01 02:32:46;;;;;;;4.63;3.72;;;9.60;99.90;;;;;;4996574;28;20394;-85
2023/05/01 02:35:12;;;;;;;6.97;4.13;;;8.90;99.90;;;;;;4978491;28;20497;-86
2023/05/01 02:37:38;;;;;;;6.93;3.70;;;10.30;99.90;;;;;;4995898;28;20137;-84
2023/05/01 02:40:06;;;;;;;5.88;3.90;;;7.80;99.90;;;;;;4995288;28;20057;-85
2023/05/01 02:42:34;;;;;;;8.48;4.05;;;7.80;99.90;;;;;;4996149;28;20402;-85
2023/05/01 02:45:06;;;;;;;7.65;4.05;;;7.80;99.90;;;;;;4979794;28;20081;-85
2023/05/01 02:47:35;;;;;;;4.63;3.90;;;7.70;99.90;;;;;;4988508;28;20042;-84
2023/05/01 02:50:02;;;;;;;6.10;3.63;;;9.90;99.90;;;;;;4979542;28;20046;-85
2023/05/01 02:52:29;;;;;;;5.88;3.95;;;7.70;99.90;;;;;;4979258;28;20060;-85
2023/05/01 02:54:55;;;;;;;5.50;3.53;;;7.60;99.90;;;;;;5012371;28;20037;-84
2023/05/01 02:57:21;;;;;;;5.78;3.90;;;9.90;99.90;;;;;;4995523;28;20124;-84
2023/05/01 02:59:47;;;;;;;8.52;4.15;;;7.60;99.90;;;;;;4996184;28;20061;-85
2023/05/01 03:02:14;;;;;;;7.25;4.15;;;10.10;99.90;;;;;;4995256;28;20556;-86
2023/05/01 03:04:43;;;;;;;6.40;4.22;;;8.70;99.90;;;;;;4995281;28;20524;-86
2023/05/01 03:07:09;;;;;;;5.93;4.10;;;7.60;99.90;;;;;;5013075;28;20513;-86
2023/05/01 03:09:36;;;;;;;7.70;4.25;;;9.40;99.90;;;;;;4994398;28;20441;-84
2023/05/01 03:12:04;;;;;;;4.80;3.88;;;7.50;99.90;;;;;;4979173;28;20076;-85
2023/05/01 03:14:30;;;;;;;10.85;4.25;;;9.00;99.90;;;;;;4995258;28;20498;-86
2023/05/01 03:16:57;;;;;;;5.15;4.05;;;7.80;99.90;;;;;;4978548;28;20379;-85
2023/05/01 03:19:23;;;;;;;5.97;4.22;;;;;;;;;;4978766;28;20068;-86
2023/05/01 03:21:52;;;;;;;5.95;3.78;;;7.50;99.90;;;;;;4994217;28;20446;-86
2023/05/01 03:24:20;;;;;;;9.27;4.57;;;7.60;99.90;;;;;;5012491;28;20050;-85
2023/05/01 03:26:46;;;;;;;9.18;4.25;;;9.20;99.90;;;;;;4995279;28;20052;-85
2023/05/01 03:29:12;;;;;;;6.05;4.30;;;7.50;99.90;;;;;;4994748;28;20056;-86
2023/05/01 03:31:37;;;;;;;8.93;3.95;;;9.60;99.90;;;;;;5012530;28;20085;-87
2023/05/01 03:34:05;;;;;;;6.40;3.97;;;9.00;99.90;;;;;;5012705;28;20089;-86
2023/05/01 03:36:32;;;;;;;8.25;4.38;;;9.20;99.90;;;;;;5011625;28;20116;-86
2023/05/01 03:39:01;;;;;;;9.48;3.92;;;8.00;99.90;;;;;;4979767;28;20065;-86
2023/05/01 03:41:32;;;;;;;9.90;4.32;;;9.50;99.90;;;;;;5016092;28;20041;-85
2023/05/01 03:43:59;;;;;;;9.48;4.47;;;9.10;99.90;;;;;;4994104;28;20046;-86
2023/05/01 03:46:25;;;;;;;8.57;3.92;;;8.40;99.90;;;;;;4966019;28;20131;-86
2023/05/01 03:48:54;;;;;;;7.85;4.32;;;7.40;99.90;;;;;;4995204;28;20121;-86
2023/05/01 03:51:19;;;;;;;7.75;4.60;;;7.50;99.90;;;;;;4994014;28;20053;-85
2023/05/01 03:53:45;;;;;;;7.15;4.47;;;7.50;99.90;;;;;;4994112;28;20046;-87
2023/05/01 03:56:11;;;;;;;8.70;4.38;;;7.40;99.90;;;;;;4994617;28;20509;-85
2023/05/01 03:58:40;;;;;;;5.85;4.45;;;7.90;99.90;;;;;;5011816;28;20073;-86
2023/05/01 04:01:06;;;;;;;7.63;4.47;;;7.90;99.90;;;;;;4978710;28;20497;-85
2023/05/01 04:03:31;;;;;;;9.70;4.78;;;7.60;99.90;;;;;;4995444;28;20058;-87
2023/05/01 04:06:03;;;;;;;5.68;4.50;;;9.20;99.90;;;;;;4996193;28;20111;-87
2023/05/01 04:08:31;;;;;;;;;;;7.30;99.90;;;;;;4994176;28;20053;-86
2023/05/01 04:10:58;;;;;;;5.82;4.78;;;7.10;99.90;;;;;;5000076;28;19945;-86
2023/05/01 04:13:24;;;;;;;8.07;5.07;;;7.20;99.90;;;;;;4979093;28;20120;-86
2023/05/01 04:15:54;;;;;;;6.70;4.95;;;7.10;99.90;;;;;;5012246;28;20575;-85
2023/05/01 04:18:20;;;;;;;7.50;4.55;;;9.00;99.90;;;;;;5011504;28;20108;-86
2023/05/01 04:20:51;;;;;;;8.45;5.05;;;6.40;99.90;;;;;;4995243;28;20050;-87
2023/05/01 04:23:16;;;;;;;6.85;4.95;;;7.50;99.90;;;;;;4974575;28;20548;-86
2023/05/01 04:25:51;;;;;;;8.20;4.80;;;7.20;99.90;;;;;;4991547;28;20049;-87
2023/05/01 04:28:29;;;;;;;5.43;4.03;;;8.40;99.90;;;;;;4988361;28;20533;-86
2023/05/01 04:30:56;;;;;;;6.13;4.53;;;7.30;99.90;;;;;;4991332;28;20061;-87
2023/05/01 04:33:22;;;;;;;9.05;4.65;;;7.30;99.90;;;;;;4990550;28;20093;-86
2023/05/01 04:35:49;;;;;;;4.88;4.40;;;7.30;99.90;;;;;;4990361;28;20104;-86
2023/05/01 04:38:15;;;;;;;10.85;5.18;;;7.30;99.90;;;;;;4990764;28;20058;-87
2023/05/01 04:40:45;;;;;;;8.57;5.15;;;7.30;99.90;;;;;;4990118;28;20043;-87
2023/05/01 04:43:12;;;;;;;7.82;5.10;;;7.40;99.90;;;;;;4974390;28;20093;-86
2023/05/01 04:45:40;;;;;;;9.07;5.28;;;9.00;99.90;;;;;;4974323;28;20050;-84
2023/05/01 04:48:06;;;;;;;8.38;4.90;;;7.40;99.90;;;;;;4973700;28;20054;-85
2023/05/01 04:50:36;;;;;;;6.65;5.03;;;7.40;99.90;;;;;;4991652;28;20050;-84
2023/05/01 04:53:04;;;;;;;8.70;5.10;;;8.00;99.90;;;;;;4989539;28;20046;-85
2023/05/01 04:55:31;;;;;;;8.05;5.35;;;7.40;99.90;;;;;;4973273;28;20058;-86
2023/05/01 04:57:58;;;;;;;10.18;5.80;;;7.40;99.90;;;;;;4989887;28;20466;-85
2023/05/01 05:00:25;;;;;;;7.85;4.70;;;7.40;99.90;;;;;;4989340;28;20058;-85
2023/05/01 05:02:50;;;;;;;7.93;5.13;;;8.30;99.90;;;;;;4991533;28;20104;-85
2023/05/01 05:05:16;;;;;;;9.02;5.65;;;9.80;99.90;;;;;;4990003;28;20046;-86
2023/05/01 05:07:41;;;;;;;10.48;5.72;;;7.40;99.90;;;;;;4989397;28;20050;-86
2023/05/01 05:10:07;;;;;;;8.13;5.30;;;9.10;99.90;;;;;;4973968;28;20442;-86
2023/05/01 05:12:33;;;;;;;9.15;5.47;;;7.40;99.90;;;;;;4989920;28;20518;-86
2023/05/01 05:14:58;;;;;;;11.27;5.65;;;7.30;99.90;;;;;;4989246;28;20074;-86
2023/05/01 05:17:25;;;;;;;8.38;5.15;;;7.40;99.90;;;;;;5003870;28;20086;-84
2023/05/01 05:19:51;;;;;;;10.73;5.93;;;9.40;99.90;;;;;;5005278;28;20042;-85
2023/05/01 05:22:16;;;;;;;7.63;5.03;;;8.60;99.90;;;;;;4990031;28;20076;-85
2023/05/01 05:24:43;;;;;;;9.18;5.88;;;9.00;99.90;;;;;;4991040;28;20061;-85
2023/05/01 05:27:11;;;;;;;9.98;5.13;;;7.40;99.90;;;;;;4990793;28;20050;-86
2023/05/01 05:29:36;;;;;;;11.32;6.72;;;8.30;99.90;;;;;;4988859;28;20050;-86
2023/05/01 05:32:02;;;;;;;10.10;6.20;;;7.40;99.90;;;;;;4990799;28;20526;-86
2023/05/01 05:34:28;;;;;;;8.05;5.45;;;7.50;99.90;;;;;;4990772;28;20065;-85
2023/05/01 05:36:53;;;;;;;6.97;5.10;;;9.90;99.90;;;;;;4989206;28;20149;-86
2023/05/01 05:39:22;;;;;;;6.78;5.32;;;7.60;99.90;;;;;;4989923;28;20046;-87
2023/05/01 05:41:48;;;;;;;10.48;6.43;;;7.50;99.90;;;;;;4990120;28;20129;-87
2023/05/01 05:44:14;;;;;;;13.05;5.72;;;7.60;99.90;;;;;;4975229;28;20129;-86
2023/05/01 05:46:39;;;;;;;10.45;5.50;;;7.60;99.90;;;;;;4980406;28;20529;-86
2023/05/01 05:49:05;;;;;;;8.48;5.55;;;10.10;99.90;;;;;;4996833;28;20418;-87
2023/05/01 05:51:30;;;;;;;9.10;5.65;;;7.60;99.90;;;;;;4997171;28;20054;-86
2023/05/01 05:53:56;;;;;;;9.43;5.97;;;8.90;99.90;;;;;;4998182;28;20112;-86
2023/05/01 05:56:23;;;;;;;12.10;6.10;;;9.90;99.90;;;;;;5000581;28;20066;-85
2023/05/01 05:59:01;;;;;;;8.88;5.88;;;7.70;99.90;;;;;;4979589;28;20061;-87
2023/05/01 06:01:27;;;;;;;22.38;13.98;;;7.70;99.90;;;;;;4995997;28;20101;-86
2023/05/01 06:03:52;;;;;;;15.18;7.70;;;7.80;99.90;;;;;;4995323;28;20054;-87
2023/05/01 06:06:21;;;;;;;11.00;6.13;;;9.20;99.90;;;;;;4995609;28;20234;-85
2023/05/01 06:08:47;;;;;;;9.07;5.28;;;7.90;99.90;;;;;;4996065;28;20129;-86
2023/05/01 06:11:12;;;;;;;9.88;6.55;;;8.00;99.90;;;;;;4995339;28;20062;-86
2023/05/01 06:13:38;;;;;;;11.27;5.70;;;9.40;99.90;;;;;;4996725;28;20379;-88
2023/05/01 06:16:06;;;;;;;6.22;5.00;;;10.50;99.90;;;;;;4996709;28;20406;-88
2023/05/01 06:18:32;;;;;;;14.82;5.97;;;8.20;99.90;;;;;;4989499;28;20054;-86
2023/05/01 06:20:58;;;;;;;11.55;6.00;;;;;;;;;;4999150;28;20050;-87
2023/05/01 06:23:24;;;;;;;14.00;5.90;;;8.30;99.90;;;;;;4995984;28;20495;-88
2023/05/01 06:25:50;;;;;;;12.15;5.63;;;10.10;99.90;;;;;;4981847;28;20100;-87
2023/05/01 06:28:16;;;;;;;9.13;5.82;;;10.00;99.90;;;;;;5000238;28;20181;-88
2023/05/01 06:30:41;;;;;;;10.20;5.35;;;10.40;99.90;;;;;;4998359;28;20061;-89
2023/05/01 06:33:08;;;;;;;9.07;5.45;;;10.60;99.90;;;;;;4997280;28;20057;-88
2023/05/01 06:35:35;;;;;;;9.20;5.97;;;9.00;99.90;;;;;;4980925;28;20065;-87
2023/05/01 06:38:01;;;;;;;11.77;5.60;;;8.50;99.90;;;;;;4997536;28;20302;-88
2023/05/01 06:40:27;;;;;;;16.85;5.35;;;10.60;99.90;;;;;;4996774;28;20093;-88
2023/05/01 06:42:53;;;;;;;6.18;4.97;;;10.50;99.90;;;;;;4997094;28;20050;-87
2023/05/01 06:45:19;;;;;;;11.15;5.13;;;11.10;99.90;;;;;;5000723;28;20070;-77
2023/05/01 06:47:45;;;;;;;10.85;5.47;;;8.80;99.90;;;;;;5006149;28;20057;-82
2023/05/01 06:50:11;;;;;;;7.63;4.60;;;10.50;99.90;;;;;;4998733;28;20504;-77
2023/05/01 06:52:36;;;;;;;9.60;5.32;;;8.90;99.90;;;;;;5012362;28;20058;-82
2023/05/01 06:55:04;;;;;;;5.75;5.15;;;8.90;99.90;;;;;;4997409;28;20074;-81
2023/05/01 06:57:29;;;;;;;9.80;4.78;;;9.00;99.90;;;;;;4991465;28;20050;-83
2023/05/01 06:59:55;;;;;;;6.85;4.90;;;10.80;99.90;;;;;;4992386;28;20058;-82
2023/05/01 07:02:21;;;;;;;6.60;4.72;;;11.10;99.90;;;;;;4992666;28;20050;-83
2023/05/01 07:04:47;;;;;;;6.10;4.82;;;8.80;99.90;;;;;;4975635;28;20056;-83
2023/05/01 07:07:14;;;;;;;9.05;5.32;;;9.10;99.90;;;;;;4990843;28;20054;-82
2023/05/01 07:09:41;;;;;;;10.45;4.95;;;9.40;99.90;;;;;;4992994;28;20054;-82
2023/05/01 07:12:06;;;;;;;11.80;4.90;;;9.20;99.90;;;;;;4992691;28;20112;-82
2023/05/01 07:14:34;;;;;;;10.40;5.30;;;11.60;99.90;;;;;;4956212;28;20141;-82
2023/05/01 07:17:03;;;;;;;9.02;5.10;;;9.20;99.90;;;;;;4975548;28;20058;-81
2023/05/01 07:19:28;;;;;;;11.20;4.97;;;9.40;99.90;;;;;;4990940;28;20089;-80
2023/05/01 07:21:56;;;;;;;8.55;4.80;;;11.00;99.90;;;;;;4998940;28;20046;-81
2023/05/01 07:24:22;;;;;;;7.65;4.93;;;10.90;99.90;;;;;;4994287;28;20057;-81
2023/05/01 07:26:47;;;;;;;10.68;5.07;;;12.00;99.90;;;;;;4977962;28;20347;-82
2023/05/01 07:29:15;;;;;;;9.32;4.80;;;11.60;99.90;;;;;;4993905;28;20076;-82
2023/05/01 07:31:41;;;;;;;10.13;4.68;;;9.30;99.90;;;;;;4977755;28;20420;-82
2023/05/01 07:34:06;;;;;;;10.00;4.72;;;12.10;99.90;;;;;;4977496;28;20129;-82
2023/05/01 07:36:32;;;;;;;8.55;4.78;;;9.70;99.90;;;;;;4976737;28;20058;-82
2023/05/01 07:38:58;;;;;;;8.57;5.13;;;11.60;99.90;;;;;;4977884;28;20136;-82
2023/05/01 07:41:25;;;;;;;7.45;4.93;;;12.10;99.90;;;;;;4994099;28;20081;-83
2023/05/01 07:43:51;;;;;;;7.50;4.40;;;12.20;99.90;;;;;;4958450;28;20043;-82
2023/05/01 07:46:16;;;;;;;12.90;4.53;;;10.00;99.90;;;;;;4994126;28;20540;-83
2023/05/01 07:48:43;;;;;;;11.75;4.63;;;10.10;99.90;;;;;;5010628;28;20050;-82
2023/05/01 07:51:08;;;;;;;8.70;4.85;;;9.70;99.90;;;;;;5010553;28;20124;-83
2023/05/01 07:53:34;;;;;;;9.00;4.50;;;11.10;99.90;;;;;;4993367;28;20050;-82
2023/05/01 07:56:07;;;;;;;10.38;5.80;;;10.30;99.90;;;;;;4993590;28;20049;-83
2023/05/01 07:58:33;;;;;;;8.60;3.97;;;10.40;99.90;;;;;;4993446;28;20083;-83
2023/05/01 08:00:59;;;;;;;10.55;4.53;;;12.90;99.90;;;;;;4977549;28;20046;-83
2023/05/01 08:03:28;;;;;;;8.38;5.03;;;12.90;99.90;;;;;;5010422;28;20165;-83
2023/05/01 08:05:54;;;;;;;8.70;4.13;;;12.50;99.90;;;;;;5003760;28;20049;-83
2023/05/01 08:08:22;;;;;;;10.68;4.63;;;12.90;99.90;;;;;;4992849;28;20053;-83
2023/05/01 08:10:49;;;;;;;12.85;5.18;;;10.80;99.90;;;;;;5010811;28;20041;-84
2023/05/01 08:13:16;;;;;;;6.75;4.22;;;10.80;99.90;;;;;;4993446;28;20446;-84
2023/05/01 08:15:41;;;;;;;7.00;4.13;;;13.00;99.90;;;;;;5010854;28;20052;-83
2023/05/01 08:18:08;;;;;;;13.52;5.78;;;11.00;99.90;;;;;;4976579;28;20053;-83
2023/05/01 08:20:37;;;;;;;9.13;5.57;;;13.20;99.90;;;;;;4993246;28;20045;-82
2023/05/01 08:23:02;;;;;;;9.70;5.50;;;11.10;99.90;;;;;;4992991;28;20057;-83
2023/05/01 08:25:30;;;;;;;11.52;4.53;;;11.30;99.90;;;;;;5024679;28;20053;-83
2023/05/01 08:27:56;;;;;;;9.27;4.03;;;11.40;99.90;;;;;;5017986;28;20086;-83
2023/05/01 08:30:21;;;;;;;7.90;3.83;;;13.20;99.90;;;;;;5010798;28;20093;-82
2023/05/01 08:32:47;;;;;;;7.50;3.38;;;11.60;99.90;;;;;;4992680;28;20053;-83
2023/05/01 08:35:12;;;;;;;7.28;3.28;;;12.10;99.90;;;;;;5010621;28;20140;-83
2023/05/01 08:37:38;;;;;;;7.35;3.50;;;13.60;99.90;;;;;;5010263;28;20068;-81
2023/05/01 08:40:07;;;;;;;6.75;3.40;;;11.80;99.90;;;;;;4992607;28;20132;-82
2023/05/01 08:42:37;;;;;;;10.88;3.38;;;11.90;99.90;;;;;;4976548;28;20064;-82
2023/05/01 08:45:06;;;;;;;9.27;3.15;;;12.00;99.90;;;;;;4976670;28;20065;-82
2023/05/01 08:47:37;;;;;;;6.88;3.00;;;12.00;99.90;;;;;;4975648;28;20418;-82
2023/05/01 08:50:03;;;;;;;6.95;3.08;;;13.80;99.90;;;;;;4993198;28;20140;-83
2023/05/01 08:52:31;;;;;;;5.30;3.25;;;12.30;99.90;;;;;;4991966;28;20509;-81
2023/05/01 08:55:00;;;;;;;8.93;2.92;;;13.30;99.90;;;;;;5002484;28;20034;-81
2023/05/01 08:57:28;;;;;;;6.97;2.63;;;12.40;99.90;;;;;;5010000;28;20050;-82
2023/05/01 08:59:56;;;;;;;5.13;2.78;;;14.00;99.90;;;;;;4975865;28;20509;-81
2023/05/01 09:02:23;;;;;;;8.20;2.90;;;12.50;99.90;;;;;;5010180;28;20124;-81
2023/05/01 09:04:51;;;;;;;6.40;3.35;;;12.60;99.90;;;;;;4993232;28;20049;-82
2023/05/01 09:07:17;;;;;;;5.18;2.63;;;12.70;99.90;;;;;;4991852;28;20071;-81
2023/05/01 09:09:43;;;;;;;7.82;2.85;;;14.90;99.90;;;;;;4992736;28;20049;-82
2023/05/01 09:12:24;;;;;;;9.02;2.67;;;13.20;99.90;;;;;;4992574;28;20104;-82
2023/05/01 09:14:52;;;;;;;4.30;1.85;;;15.10;99.90;;;;;;5009761;28;20465;-82
2023/05/01 09:17:19;;;;;;;6.95;1.55;;;13.00;99.90;;;;;;5010373;28;20053;-82
2023/05/01 09:19:46;;;;;;;2.83;1.10;;;13.00;99.90;;;;;;4992094;28;20042;-82
2023/05/01 09:22:11;;;;;;;5.20;1.80;;;13.10;99.90;;;;;;5009266;28;20065;-82
2023/05/01 09:24:37;;;;;;;5.38;1.38;;;14.30;99.90;;;;;;4976298;28;20046;-82
2023/05/01 09:27:03;;;;;;;6.72;1.60;;;13.30;99.90;;;;;;4976742;28;20042;-82
2023/05/01 09:29:47;;;;;;;4.95;1.70;;;15.50;99.90;;;;;;5011322;28;20058;-83
2023/05/01 09:32:24;;;;;;;4.35;2.00;;;13.40;99.90;;;;;;4986684;28;20280;-83
2023/05/01 09:34:51;;;;;;;6.13;2.10;;;13.60;99.90;;;;;;4992545;28;20129;-82
2023/05/01 09:37:28;;;;;;;5.63;2.80;;;14.30;99.90;;;;;;5009983;28;20050;-83
2023/05/01 09:40:04;;;;;;;27.35;15.77;;;13.80;99.90;;;;;;4976406;28;20050;-82
2023/05/01 09:42:33;;;;;;;8.63;2.53;;;14.00;99.90;;;;;;4991615;28;20061;-83
2023/05/01 09:45:00;;;;;;;5.05;2.03;;;13.90;99.90;;;;;;4992386;28;20053;-82
2023/05/01 09:47:27;;;;;;;5.35;2.03;;;14.90;99.90;;;;;;5009113;28;20068;-83
2023/05/01 09:49:54;;;;;;;4.10;1.75;;;14.00;99.90;;;;;;5009347;28;20420;-83
2023/05/01 09:52:22;;;;;;;6.38;2.10;;;15.70;99.90;;;;;;4976261;28;20046;-84
2023/05/01 09:54:48;;;;;;;6.53;2.65;;;14.30;99.90;;;;;;4992566;28;20053;-83
2023/05/01 09:57:14;;;;;;;4.57;2.55;;;14.40;99.90;;;;;;5002387;28;20058;-83
2023/05/01 09:59:39;;;;;;;4.22;2.22;;;15.10;99.90;;;;;;4972190;28;20485;-82
2023/05/01 10:02:05;;;;;;;6.95;2.58;;;14.40;99.90;;;;;;4977323;28;20053;-83
2023/05/01 10:04:34;;;;;;;5.30;2.30;;;14.50;99.90;;;;;;4975304;28;20125;-83
2023/05/01 10:07:20;;;;;;;6.10;2.28;;;14.60;99.90;;;;;;4975501;28;20461;-82
2023/05/01 10:09:46;;;;;;;3.97;2.55;;;13.30;99.90;;;;;;4991278;28;20089;-83
2023/05/01 10:12:23;;;;;;;5.50;2.20;;;15.00;99.90;;;;;;4991938;28;20050;-83
2023/05/01 10:14:55;;;;;;;6.00;2.50;;;14.90;99.90;;;;;;5010091;28;20112;-83
2023/05/01 10:17:21;;;;;;;12.05;2.20;;;15.10;99.90;;;;;;4991310;28;20069;-83
2023/05/01 10:19:48;;;;;;;5.30;2.90;;;15.10;99.90;;;;;;4992087;28;20409;-83
2023/05/01 10:22:15;;;;;;;4.43;2.80;;;15.10;99.90;;;;;;4991501;28;20165;-83
2023/05/01 10:24:42;;;;;;;8.70;3.17;;;15.20;99.90;;;;;;4991058;28;20061;-84
2023/05/01 10:27:09;;;;;;;4.43;2.20;;;15.40;99.90;;;;;;4983962;28;20536;-83
2023/05/01 10:29:38;;;;;;;7.53;2.97;;;16.30;99.90;;;;;;5009682;28;20058;-83
2023/05/01 10:32:08;;;;;;;10.40;3.13;;;15.40;99.90;;;;;;5012108;28;20060;-83
2023/05/01 10:34:37;;;;;;;7.50;2.90;;;15.50;99.90;;;;;;4995435;28;20140;-83
2023/05/01 10:37:11;;;;;;;4.88;2.50;;;15.50;99.90;;;;;;4994883;28;20129;-83
2023/05/01 10:39:37;;;;;;;6.63;2.25;;;16.20;99.90;;;;;;4994785;28;20068;-83
2023/05/01 10:42:03;;;;;;;4.35;1.70;;;;;;;;;;4978938;28;20480;-83
2023/05/01 10:44:29;;;;;;;6.40;1.85;;;15.70;99.90;;;;;;4995270;28;20565;-83
2023/05/01 10:46:55;;;;;;;5.82;2.10;;;15.70;99.90;;;;;;5012234;28;20041;-83
2023/05/01 10:49:21;;;;;;;4.68;1.48;;;16.20;99.90;;;;;;4995066;28;20053;-83
2023/05/01 10:51:59;;;;;;;3.05;1.40;;;16.00;99.90;;;;;;4995233;28;20138;-82
2023/05/01 10:54:29;;;;;;;6.10;1.45;;;16.10;99.90;;;;;;4978714;28;20049;-83
2023/05/01 10:57:02;;;;;;;2.80;1.10;;;16.30;99.90;;;;;;4978510;28;20057;-83
2023/05/01 11:00:02;;;;;;;2.60;1.58;;;16.30;99.90;;;;;;4978415;28;20046;-83
2023/05/01 11:02:29;;;;;;;4.85;1.73;;;16.40;99.90;;;;;;4959292;28;20381;-82
2023/05/01 11:04:55;;;;;;;3.17;1.05;;;17.40;99.90;;;;;;5012763;28;20120;-83
2023/05/01 11:07:22;;;;;;;1.50;0.77;;;16.60;99.90;;;;;;5011615;28;20486;-83
2023/05/01 11:10:00;;;;;;;4.03;0.90;;;18.40;99.90;;;;;;4995317;28;20161;-81
2023/05/01 11:12:52;;;;;;;3.25;0.88;;;16.90;99.90;;;;;;5012118;28;20046;-83
2023/05/01 11:15:31;;;;;;;2.70;0.60;;;16.60;99.90;;;;;;4976047;28;20072;-84
2023/05/01 11:17:58;;;;;;;2.28;0.77;;;17.10;99.90;;;;;;4978108;28;20085;-83
2023/05/01 11:20:24;;;;;;;3.88;1.42;;;17.10;99.90;;;;;;4994093;28;20140;-83
2023/05/01 11:22:58;;;;;;;2.58;0.70;;;18.00;99.90;;;;;;4991240;28;20109;-83
2023/05/01 11:25:32;;;;;;;2.97;0.90;;;17.20;99.90;;;;;;4991561;28;20078;-83
2023/05/01 11:28:08;;;;;;;3.38;0.88;;;17.50;99.90;;;;;;4974124;28;20054;-83
2023/05/01 11:30:40;;;;;;;1.45;0.80;;;17.70;99.90;;;;;;5008740;28;20093;-84
2023/05/01 11:33:26;;;;;;;2.85;0.90;;;17.90;99.90;;;;;;4993606;28;20490;-84
2023/05/01 11:36:01;;;;;;;4.05;1.02;;;16.90;99.90;;;;;;4991029;28;20100;-84
2023/05/01 11:38:27;;;;;;;3.15;1.00;;;18.20;99.90;;;;;;4990297;28;20414;-84
2023/05/01 11:41:07;;;;;;;4.18;0.93;;;18.40;99.90;;;;;;4991739;28;20090;-84
2023/05/01 11:43:52;;;;;;;6.18;0.93;;;18.10;99.90;;;;;;4989747;28;20050;-84
2023/05/01 11:46:32;;;;;;;2.60;1.02;;;18.30;99.90;;;;;;4966741;28;20135;-84
2023/05/01 11:49:00;;;;;;;2.75;1.13;;;17.90;99.80;;;;;;4990208;28;20038;-83
2023/05/01 11:51:27;;;;;;;1.83;1.10;;;19.50;99.90;;;;;;4992156;28;20121;-83
2023/05/01 11:54:07;;;;;;;2.90;0.95;;;17.60;99.90;;;;;;4992143;28;20050;-83
2023/05/01 11:56:34;;;;;;;5.25;0.80;;;17.60;99.90;;;;;;4989989;28;20085;-83
2023/05/01 11:59:19;;;;;;;4.50;1.58;;;17.60;99.90;;;;;;4958369;28;20129;-84
2023/05/01 12:01:45;;;;;;;5.47;0.90;;;17.60;99.90;;;;;;4990684;28;20430;-83
2023/05/01 12:04:21;;;;;;;5.00;1.17;;;17.40;99.60;;;;;;4991273;28;20050;-83
2023/05/01 12:06:47;;;;;;;5.20;1.25;;;17.40;99.90;;;;;;4991966;28;20397;-84
2023/05/01 12:09:21;;;;;;;3.75;1.33;;;17.50;99.90;;;;;;4974263;28;20461;-83
2023/05/01 12:11:50;;;;;;;4.25;1.30;;;17.50;99.90;;;;;;4990818;28;20046;-83
2023/05/01 12:14:17;;;;;;;1.92;0.85;;;17.50;99.90;;;;;;4991144;28;20137;-83
2023/05/01 12:16:43;;;;;;;2.28;0.90;;;17.40;99.90;;;;;;4973260;28;20100;-83
2023/05/01 12:19:11;;;;;;;2.70;1.05;;;19.20;99.90;;;;;;4991422;28;20070;-83
2023/05/01 12:21:37;;;;;;;2.83;0.75;;;17.50;99.90;;;;;;4990268;28;20126;-82
2023/05/01 12:24:17;;;;;;;3.13;1.30;;;17.40;99.90;;;;;;4990327;28;20582;-83
2023/05/01 12:26:44;;;;;;;2.75;1.10;;;17.40;99.90;;;;;;4989952;28;20121;-83
2023/05/01 12:29:10;;;;;;;2.92;1.10;;;18.30;99.90;;;;;;4989964;28;20065;-83
2023/05/01 12:31:44;;;;;;;5.10;1.70;;;17.40;99.90;;;;;;4990595;28;20050;-83
2023/05/01 12:34:12;;;;;;;;;;;17.40;99.90;;;;;;4974063;28;20050;-83
2023/05/01 12:36:38;;;;;;;3.00;1.00;;;17.40;99.90;;;;;;4989654;28;19968;-84
2023/05/01 12:39:13;;;;;;;2.58;1.13;;;17.50;99.90;;;;;;4990434;28;20086;-84
2023/05/01 12:41:41;;;;;;;2.10;1.05;;;17.40;99.90;;;;;;4973467;28;20112;-83
2023/05/01 12:44:24;;;;;;;2.15;1.25;;;17.40;99.90;;;;;;4989417;28;20086;-83
2023/05/01 12:47:03;;;;;;;3.10;0.82;;;17.40;99.90;;;;;;4990412;28;20046;-83
2023/05/01 12:49:31;;;;;;;1.58;0.90;;;17.40;99.90;;;;;;4982413;28;20054;-84
2023/05/01 12:52:00;;;;;;;1.63;0.80;;;17.60;99.90;;;;;;4990424;28;20406;-83
2023/05/01 12:54:29;;;;;;;2.13;0.60;;;17.60;99.80;;;;;;4965843;28;20057;-82
2023/05/01 12:57:14;;;;;;;3.67;1.40;;;17.80;99.90;;;;;;4990869;28;20042;-82
2023/05/01 12:59:42;;;;;;;3.53;1.45;;;17.80;99.90;;;;;;4983416;28;20124;-83